Time;durP1;ratioP1;P1;durP2;ratioP2;P2;SDS_P1;SDS_P2;PMS_P1;PMS_P2;Temp;Humidity;BMP_temperature;BMP_pressure;BME280_temperature;BME280_humidity;BME280_pressure;Samples;Min_cycle;Max_cycle;Signal;HPM_P1;HPM_P2
2023/09/24 00:02:05;;;;;;;5.07;2.40;;;;;;;8.86;100.00;100862.22;5033776;28;20224;-63
2023/09/24 00:04:31;;;;;;;3.67;2.60;;;;;;;8.72;100.00;100867.84;5049729;28;20182;-63
2023/09/24 00:06:56;;;;;;;4.47;2.70;;;;;;;8.67;100.00;100864.59;5033928;28;20180;-63
2023/09/24 00:09:22;;;;;;;4.73;2.70;;;;;;;8.68;100.00;100871.41;5049950;28;20210;-64
2023/09/24 00:11:47;;;;;;;3.40;2.27;;;;;;;8.70;100.00;100876.50;5037386;28;20306;-63
2023/09/24 00:14:13;;;;;;;5.20;3.13;;;;;;;8.70;100.00;100872.19;5035933;28;20270;-64
2023/09/24 00:16:38;;;;;;;3.60;2.50;;;;;;;8.77;100.00;100877.97;5033820;28;20269;-64
2023/09/24 00:19:04;;;;;;;5.10;2.20;;;;;;;8.81;100.00;100887.22;5032660;28;20621;-65
2023/09/24 00:21:29;;;;;;;4.37;2.67;;;;;;;8.84;100.00;100881.13;5033901;28;20316;-66
2023/09/24 00:23:54;;;;;;;4.27;2.83;;;;;;;8.80;100.00;100877.84;5027448;28;20641;-66
2023/09/24 00:26:19;;;;;;;3.20;2.60;;;;;;;8.75;100.00;100889.16;5033380;28;20182;-65
2023/09/24 00:28:45;;;;;;;3.10;2.43;;;;;;;8.77;100.00;100887.38;5033742;28;20210;-64
2023/09/24 00:31:10;;;;;;;5.00;2.63;;;;;;;8.72;100.00;100901.19;5032122;28;20217;-64
2023/09/24 00:33:35;;;;;;;5.17;3.13;;;;;;;8.75;100.00;100897.69;5051683;28;20264;-64
2023/09/24 00:36:00;;;;;;;3.77;2.70;;;;;;;8.64;100.00;100904.91;5056659;28;20648;-64
2023/09/24 00:38:26;;;;;;;5.40;2.90;;;;;;;8.61;100.00;100908.41;5058233;28;20185;-65
2023/09/24 00:40:51;;;;;;;2.77;2.30;;;;;;;8.63;100.00;100903.22;5042970;28;20225;-64
2023/09/24 00:43:31;;;;;;;3.77;2.90;;;;;;;8.56;100.00;100905.16;5060826;28;20197;-64
2023/09/24 00:45:58;;;;;;;4.27;2.33;;;;;;;8.60;100.00;100901.59;5047869;28;20188;-64
2023/09/24 00:48:29;;;;;;;4.17;2.83;;;;;;;8.56;100.00;100906.00;5048494;28;20186;-64
2023/09/24 00:50:58;;;;;;;2.83;2.30;;;;;;;8.48;100.00;100902.84;5048234;28;20224;-63
2023/09/24 00:53:29;;;;;;;3.47;3.13;;;;;;;8.36;100.00;100901.50;5039572;28;20204;-62
2023/09/24 00:55:58;;;;;;;5.20;3.23;;;;;;;8.42;100.00;100909.88;5051011;28;20166;-64
2023/09/24 00:58:25;;;;;;;3.93;2.60;;;;;;;8.41;100.00;100901.34;5052004;28;20267;-63
2023/09/24 01:00:56;;;;;;;5.77;3.20;;;;;;;8.37;100.00;100910.88;5048728;28;20221;-63
2023/09/24 01:03:24;;;;;;;3.37;2.57;;;;;;;8.36;100.00;100906.63;5051288;28;20181;-63
2023/09/24 01:05:53;;;;;;;4.10;2.93;;;;;;;8.27;100.00;100909.47;5043202;28;20590;-63
2023/09/24 01:08:21;;;;;;;4.63;3.30;;;;;;;8.26;100.00;100901.84;5030807;28;20187;-63
2023/09/24 01:10:47;;;;;;;6.00;3.40;;;;;;;8.23;100.00;100901.03;5027791;28;20253;-63
2023/09/24 01:13:15;;;;;;;5.30;3.23;;;;;;;8.20;100.00;100895.19;5047852;28;20534;-63
2023/09/24 01:15:48;;;;;;;3.57;3.10;;;;;;;8.15;100.00;100887.66;5063892;28;20263;-65
2023/09/24 01:18:14;;;;;;;3.97;2.77;;;;;;;8.18;100.00;100897.78;5051509;28;20178;-63
2023/09/24 01:20:40;;;;;;;4.53;3.23;;;;;;;8.20;100.00;100892.63;5048001;28;20220;-63
2023/09/24 01:23:06;;;;;;;4.53;3.40;;;;;;;8.16;100.00;100886.78;5061736;28;20338;-65
2023/09/24 01:25:35;;;;;;;4.47;3.13;;;;;;;8.15;100.00;100884.22;5051604;28;20653;-64
2023/09/24 01:28:03;;;;;;;4.53;3.40;;;;;;;8.13;100.00;100891.16;5035457;28;20269;-64
2023/09/24 01:30:28;;;;;;;5.30;3.20;;;;;;;8.08;100.00;100891.28;5038176;28;20684;-63
2023/09/24 01:32:54;;;;;;;5.73;3.40;;;;;;;7.96;100.00;100895.06;5050585;28;20256;-63
2023/09/24 01:35:25;;;;;;;3.50;2.80;;;;;;;8.03;100.00;100904.22;5051765;28;20243;-63
2023/09/24 01:37:52;;;;;;;4.20;3.27;;;;;;;8.02;100.00;100900.00;5046272;28;20190;-64
2023/09/24 01:40:20;;;;;;;4.97;2.83;;;;;;;7.92;100.00;100906.28;5043511;28;20185;-63
2023/09/24 01:42:46;;;;;;;5.40;3.40;;;;;;;7.93;100.00;100899.47;5071223;28;20263;-63
2023/09/24 01:45:12;;;;;;;5.57;3.30;;;;;;;7.93;100.00;100900.28;5051303;28;20177;-64
2023/09/24 01:47:38;;;;;;;3.00;2.53;;;;;;;7.93;100.00;100907.97;5052684;28;20169;-64
2023/09/24 01:50:08;;;;;;;3.27;2.77;;;;;;;7.94;100.00;100913.91;5059199;28;20277;-63
2023/09/24 01:52:35;;;;;;;3.80;2.77;;;;;;;7.89;100.00;100916.66;5068685;28;20203;-65
2023/09/24 01:55:01;;;;;;;3.87;2.70;;;;;;;7.90;100.00;100908.91;5045875;28;20192;-63
2023/09/24 01:57:26;;;;;;;6.13;2.97;;;;;;;7.67;100.00;100919.00;5057847;28;20628;-64
2023/09/24 01:59:52;;;;;;;3.60;2.70;;;;;;;7.67;100.00;100913.88;5061911;28;20180;-64
2023/09/24 02:02:17;;;;;;;5.23;2.90;;;;;;;7.75;100.00;100919.59;5044455;28;20628;-65
2023/09/24 02:04:42;;;;;;;5.87;2.67;;;;;;;7.73;100.00;100922.22;5063591;28;20263;-65
2023/09/24 02:07:08;;;;;;;2.77;2.57;;;;;;;7.71;100.00;100926.53;5052582;28;20243;-64
2023/09/24 02:09:35;;;;;;;7.57;2.93;;;;;;;7.70;100.00;100927.44;5051612;28;20707;-64
2023/09/24 02:12:00;;;;;;;5.40;3.00;;;;;;;7.72;100.00;100929.94;5038499;28;20300;-64
2023/09/24 02:14:26;;;;;;;5.67;2.90;;;;;;;7.63;100.00;100928.50;5049434;28;20260;-66
2023/09/24 02:16:51;;;;;;;6.10;3.37;;;;;;;7.59;100.00;100930.31;5051164;28;20286;-64
2023/09/24 02:19:17;;;;;;;3.33;3.03;;;;;;;7.48;100.00;100929.78;5034824;28;20536;-64
2023/09/24 02:21:42;;;;;;;3.87;2.90;;;;;;;7.47;100.00;100929.78;5047058;28;20232;-65
2023/09/24 02:24:08;;;;;;;6.03;3.47;;;;;;;7.46;100.00;100923.84;5041279;28;20165;-64
2023/09/24 02:26:34;;;;;;;3.83;2.97;;;;;;;7.46;100.00;100930.69;5050986;28;20181;-64
2023/09/24 02:28:59;;;;;;;11.80;3.43;;;;;;;7.45;100.00;100936.69;5051047;28;20664;-64
2023/09/24 02:31:26;;;;;;;3.63;2.97;;;;;;;7.47;100.00;100933.22;5040887;28;20225;-64
2023/09/24 02:33:51;;;;;;;4.80;3.60;;;;;;;7.41;100.00;100939.34;5046108;28;20185;-64
2023/09/24 02:36:16;;;;;;;6.20;3.03;;;;;;;7.37;100.00;100942.88;5040921;28;20189;-65
2023/09/24 02:38:43;;;;;;;5.93;3.63;;;;;;;7.34;100.00;100942.94;5049680;28;20185;-64
2023/09/24 02:41:08;;;;;;;5.07;3.80;;;;;;;7.39;100.00;100945.38;5050673;28;20262;-65
2023/09/24 02:43:34;;;;;;;6.43;3.40;;;;;;;7.37;100.00;100942.88;5058281;28;20221;-65
2023/09/24 02:46:00;;;;;;;4.80;3.43;;;;;;;7.35;100.00;100956.59;5051617;28;20181;-64
2023/09/24 02:48:25;;;;;;;6.47;3.50;;;;;;;7.39;100.00;100955.63;5034187;28;20181;-64
2023/09/24 02:50:51;;;;;;;3.37;3.07;;;;;;;7.29;100.00;100952.47;5031859;28;20319;-64
2023/09/24 02:53:16;;;;;;;5.60;3.33;;;;;;;7.42;100.00;100956.38;5062128;28;20757;-63
2023/09/24 02:55:41;;;;;;;4.33;3.83;;;;;;;7.39;100.00;100958.19;5055731;28;20185;-63
2023/09/24 02:58:06;;;;;;;4.20;3.37;;;;;;;7.37;100.00;100949.72;5055421;28;20235;-63
2023/09/24 03:00:36;;;;;;;3.50;3.13;;;;;;;7.38;100.00;100952.22;5049454;28;20228;-63
2023/09/24 03:03:05;;;;;;;5.00;3.60;;;;;;;7.29;100.00;100957.59;5055109;28;20177;-63
2023/09/24 03:05:31;;;;;;;3.83;3.53;;;;;;;7.25;100.00;100956.81;5044216;28;20178;-64
2023/09/24 03:08:00;;;;;;;4.27;3.40;;;;;;;7.23;100.00;100958.59;5037360;28;20196;-63
2023/09/24 03:10:26;;;;;;;4.93;3.43;;;;;;;7.27;100.00;100954.25;5040789;28;20579;-64
2023/09/24 03:12:52;;;;;;;4.83;3.40;;;;;;;7.29;100.00;100955.03;5059772;28;20228;-64
2023/09/24 03:15:20;;;;;;;4.17;3.40;;;;;;;7.30;100.00;100958.44;5074065;28;20612;-63
2023/09/24 03:17:48;;;;;;;8.03;3.37;;;;;;;7.26;100.00;100958.50;5068292;28;20533;-63
2023/09/24 03:20:19;;;;;;;7.77;3.40;;;;;;;7.20;100.00;100957.84;5045744;28;20185;-63
2023/09/24 03:22:55;;;;;;;4.60;3.53;;;;;;;7.18;100.00;100965.56;5056054;28;20232;-64
2023/09/24 03:25:23;;;;;;;3.70;3.13;;;;;;;7.06;100.00;100965.88;5054051;28;20192;-64
2023/09/24 03:27:50;;;;;;;3.97;3.57;;;;;;;7.06;100.00;100964.16;5054708;28;20204;-65
2023/09/24 03:30:17;;;;;;;4.87;2.97;;;;;;;7.10;100.00;100964.91;5014222;28;20225;-64
2023/09/24 03:32:46;;;;;;;5.40;3.17;;;;;;;7.05;100.00;100971.88;5068783;28;20173;-66
2023/09/24 03:35:13;;;;;;;5.87;3.23;;;;;;;7.08;100.00;100964.97;5069763;28;20220;-64
2023/09/24 03:37:41;;;;;;;3.73;3.13;;;;;;;7.10;100.00;100975.97;5053817;28;20183;-63
2023/09/24 03:40:27;;;;;;;5.37;3.30;;;;;;;6.98;100.00;100976.28;5045321;28;20181;-64
2023/09/24 03:42:52;;;;;;;4.70;3.30;;;;;;;7.05;100.00;100980.38;5054024;28;20207;-64
2023/09/24 03:45:20;;;;;;;6.57;2.93;;;;;;;7.07;100.00;100981.19;5053850;28;20233;-66
2023/09/24 03:47:46;;;;;;;3.80;3.13;;;;;;;7.05;100.00;100985.50;5054347;28;20180;-65
2023/09/24 03:50:13;;;;;;;3.97;2.87;;;;;;;7.08;100.00;100982.03;5033426;28;20288;-63
2023/09/24 03:52:57;;;;;;;5.80;3.43;;;;;;;6.95;100.00;100994.28;5068708;28;20177;-67
2023/09/24 03:55:23;;;;;;;3.70;3.17;;;;;;;7.06;100.00;100987.19;5059477;28;20192;-65
2023/09/24 03:57:48;;;;;;;5.10;3.30;;;;;;;7.04;100.00;100988.94;5042251;28;20178;-66
2023/09/24 04:00:21;;;;;;;5.43;3.00;;;;;;;7.06;100.00;100994.88;5044231;28;20188;-68
2023/09/24 04:02:50;;;;;;;4.13;3.47;;;;;;;7.00;100.00;100991.63;5050664;28;20184;-66
2023/09/24 04:05:17;;;;;;;4.67;3.70;;;;;;;6.89;100.00;101000.41;5054368;28;20556;-65
2023/09/24 04:07:46;;;;;;;5.13;3.40;;;;;;;6.91;100.00;101001.19;5050187;28;20255;-64
2023/09/24 04:10:14;;;;;;;4.53;3.53;;;;;;;6.82;100.00;101001.41;5053245;28;20206;-64
2023/09/24 04:12:41;;;;;;;7.13;3.60;;;;;;;6.86;100.00;101009.84;5056737;28;20184;-64
2023/09/24 04:15:07;;;;;;;5.07;2.87;;;;;;;6.88;100.00;101010.66;5051568;28;20257;-64
2023/09/24 04:17:32;;;;;;;5.77;3.63;;;;;;;6.83;100.00;101008.22;5052284;28;20184;-65
2023/09/24 04:19:58;;;;;;;4.90;3.30;;;;;;;6.89;100.00;101018.28;5065405;28;20545;-65
2023/09/24 04:22:23;;;;;;;7.07;3.57;;;;;;;6.88;100.00;101023.47;5062735;28;20227;-65
2023/09/24 04:24:54;;;;;;;5.73;3.97;;;;;;;6.83;100.00;101017.63;5062859;28;20197;-65
2023/09/24 04:27:20;;;;;;;4.07;3.57;;;;;;;6.78;100.00;101025.41;5054106;28;20199;-66
2023/09/24 04:29:46;;;;;;;4.10;3.60;;;;;;;6.79;100.00;101030.47;5054306;28;20243;-66
2023/09/24 04:32:11;;;;;;;6.17;3.63;;;;;;;6.81;100.00;101030.44;5054335;28;20251;-65
2023/09/24 04:34:37;;;;;;;6.03;3.60;;;;;;;6.79;100.00;101039.88;5045487;28;20186;-64
2023/09/24 04:37:02;;;;;;;5.53;3.60;;;;;;;6.78;100.00;101049.25;5054345;28;20181;-63
2023/09/24 04:39:28;;;;;;;5.60;3.00;;;;;;;6.84;100.00;101047.44;5047488;28;20236;-63
2023/09/24 04:41:54;;;;;;;4.97;3.30;;;;;;;6.85;100.00;101051.69;5053301;28;20260;-64
2023/09/24 04:44:19;;;;;;;5.67;3.50;;;;;;;6.73;100.00;101058.72;5046754;28;20593;-64
2023/09/24 04:46:44;;;;;;;5.63;4.00;;;;;;;6.93;100.00;101060.00;5057101;28;20238;-63
2023/09/24 04:49:10;;;;;;;4.10;3.43;;;;;;;6.90;100.00;101060.06;5050977;28;20194;-64
2023/09/24 04:51:35;;;;;;;4.87;3.33;;;;;;;6.79;100.00;101055.22;5040389;28;20278;-65
2023/09/24 04:54:01;;;;;;;3.90;3.50;;;;;;;6.77;100.00;101070.59;5057476;28;20184;-65
2023/09/24 04:56:29;;;;;;;6.73;3.60;;;;;;;6.69;100.00;101066.53;5056916;28;20221;-65
2023/09/24 04:58:55;;;;;;;5.53;3.30;;;;;;;6.68;100.00;101072.53;5073309;28;20221;-65
2023/09/24 05:01:20;;;;;;;3.50;3.20;;;;;;;6.66;100.00;101074.25;5037122;28;20694;-65
2023/09/24 05:03:49;;;;;;;5.10;3.70;;;;;;;6.54;100.00;101078.78;5050110;28;20192;-64
2023/09/24 05:06:15;;;;;;;3.10;2.73;;;;;;;6.57;100.00;101080.41;5052328;28;20185;-67
2023/09/24 05:08:40;;;;;;;5.87;3.00;;;;;;;6.51;100.00;101088.22;5052735;28;20254;-65
2023/09/24 05:11:05;;;;;;;4.77;3.10;;;;;;;6.57;100.00;101088.09;5044847;28;20224;-65
2023/09/24 05:13:31;;;;;;;4.63;3.20;;;;;;;6.47;100.00;101084.88;5051860;28;20196;-65
2023/09/24 05:15:59;;;;;;;4.50;2.77;;;;;;;6.46;100.00;101086.63;5040376;28;20490;-65
2023/09/24 05:18:25;;;;;;;3.57;2.70;;;;;;;6.48;100.00;101088.31;5053109;28;20185;-65
2023/09/24 05:20:50;;;;;;;8.20;3.30;;;;;;;6.38;100.00;101091.03;5049095;28;20308;-65
2023/09/24 05:23:15;;;;;;;4.43;3.13;;;;;;;6.42;100.00;101105.44;5062112;28;20554;-65
2023/09/24 05:25:41;;;;;;;3.43;3.13;;;;;;;6.51;100.00;101109.53;5053144;28;20216;-66
2023/09/24 05:28:06;;;;;;;3.93;3.53;;;;;;;6.41;100.00;101120.81;5042015;28;20589;-66
2023/09/24 05:30:32;;;;;;;4.47;3.30;;;;;;;6.52;100.00;101120.59;5057912;28;20235;-67
2023/09/24 05:32:57;;;;;;;6.07;3.93;;;;;;;6.53;100.00;101118.00;5071845;28;20187;-65
2023/09/24 05:35:22;;;;;;;3.70;3.20;;;;;;;6.56;100.00;101119.63;5066809;28;20192;-66
2023/09/24 05:37:48;;;;;;;5.47;3.67;;;;;;;6.56;100.00;101128.16;5052460;28;20177;-65
2023/09/24 05:40:14;;;;;;;3.37;3.03;;;;;;;6.63;100.00;101132.25;5043866;28;20181;-65
2023/09/24 05:42:39;;;;;;;3.67;3.20;;;;;;;6.70;100.00;101139.78;5048027;28;20279;-64
2023/09/24 05:45:05;;;;;;;3.37;3.07;;;;;;;6.77;100.00;101128.56;5055371;28;20188;-67
2023/09/24 05:47:31;;;;;;;4.00;3.60;;;;;;;6.76;100.00;101132.84;5050119;28;20231;-65
2023/09/24 05:49:56;;;;;;;5.20;3.63;;;;;;;6.85;100.00;101136.06;5042543;28;20294;-65
2023/09/24 05:52:21;;;;;;;9.23;3.87;;;;;;;6.94;100.00;101146.91;5061059;28;20776;-65
2023/09/24 05:54:46;;;;;;;5.37;3.73;;;;;;;7.04;100.00;101149.28;5071812;28;20179;-63
2023/09/24 05:57:12;;;;;;;5.57;3.60;;;;;;;7.05;100.00;101159.47;5071711;28;20193;-64
2023/09/24 05:59:37;;;;;;;5.63;3.23;;;;;;;7.06;100.00;101156.03;5054053;28;20185;-64
2023/09/24 06:02:03;;;;;;;4.23;3.13;;;;;;;7.19;100.00;101159.16;5047188;28;20329;-65
2023/09/24 06:04:30;;;;;;;4.20;3.33;;;;;;;7.31;100.00;101162.31;5067670;28;20635;-63
2023/09/24 06:06:55;;;;;;;4.00;3.20;;;;;;;7.41;100.00;101162.03;5069801;28;20192;-64
2023/09/24 06:09:21;;;;;;;7.03;3.60;;;;;;;7.52;100.00;101161.78;5065647;28;20208;-64
2023/09/24 06:11:47;;;;;;;4.20;3.80;;;;;;;7.56;100.00;101160.81;5044035;28;20225;-64
2023/09/24 06:14:12;;;;;;;4.47;3.50;;;;;;;7.69;100.00;101160.50;5064338;28;20709;-64
2023/09/24 06:16:37;;;;;;;4.13;3.47;;;;;;;7.79;100.00;101161.13;5061537;28;20185;-64
2023/09/24 06:19:04;;;;;;;4.43;3.50;;;;;;;8.02;100.00;101163.91;5064862;28;20177;-64
2023/09/24 06:21:29;;;;;;;4.43;3.70;;;;;;;8.42;100.00;101173.97;5034336;28;20719;-64
2023/09/24 06:23:57;;;;;;;4.73;3.73;;;;;;;9.04;100.00;101167.88;5049662;28;20263;-65
2023/09/24 06:26:26;;;;;;;5.20;2.87;;;;;;;9.88;100.00;101166.00;5059653;28;20183;-65
2023/09/24 06:28:51;;;;;;;3.77;3.10;;;;;;;10.64;100.00;101163.31;5051817;28;20660;-64
2023/09/24 06:31:16;;;;;;;3.20;2.90;;;;;;;11.52;100.00;101151.28;5042725;28;20225;-66
2023/09/24 06:33:42;;;;;;;4.50;2.60;;;;;;;13.03;100.00;101152.31;5052070;28;20237;-65
2023/09/24 06:36:09;;;;;;;4.53;2.37;;;;;;;14.76;100.00;101158.19;5052008;28;20181;-64
2023/09/24 06:38:34;;;;;;;4.50;2.73;;;;;;;16.03;100.00;101155.28;5046669;28;20176;-63
2023/09/24 06:41:01;;;;;;;2.33;1.90;;;;;;;16.72;100.00;101158.78;5041640;28;20229;-65
2023/09/24 06:43:26;;;;;;;4.07;1.57;;;;;;;17.80;100.00;101160.47;5040676;28;20660;-64
2023/09/24 06:45:54;;;;;;;3.30;2.20;;;;;;;18.75;91.00;101163.41;5047274;28;20217;-66
2023/09/24 06:48:19;;;;;;;2.90;2.10;;;;;;;19.82;81.57;101164.19;5049656;28;20648;-65
2023/09/24 06:50:44;;;;;;;2.03;1.80;;;;;;;20.55;73.60;101166.41;5043365;28;20354;-66
2023/09/24 06:53:10;;;;;;;3.20;2.07;;;;;;;19.76;80.04;101169.91;5046361;28;20180;-66
2023/09/24 06:55:39;;;;;;;2.47;2.10;;;;;;;20.27;77.83;101173.81;5051438;28;20553;-66
2023/09/24 06:58:04;;;;;;;2.77;2.10;;;;;;;20.63;71.81;101181.50;5050499;28;20178;-66
2023/09/24 07:00:30;;;;;;;9.20;2.17;;;;;;;20.76;70.78;101187.44;5050650;28;20244;-65
2023/09/24 07:02:55;;;;;;;3.03;2.20;;;;;;;21.46;67.88;101184.38;5065571;28;20181;-66
2023/09/24 07:05:20;;;;;;;3.67;2.97;;;;;;;20.26;70.68;101185.22;5051085;28;20189;-66
2023/09/24 07:07:45;;;;;;;4.43;2.70;;;;;;;20.69;72.93;101181.00;5054070;28;20528;-64
2023/09/24 07:10:11;;;;;;;3.47;2.70;;;;;;;21.44;66.76;101186.28;5050592;28;20296;-65
2023/09/24 07:12:36;;;;;;;5.47;2.67;;;;;;;21.36;66.49;101191.31;5065979;28;20235;-65
2023/09/24 07:15:01;;;;;;;4.70;2.60;;;;;;;22.10;61.55;101195.56;5051108;28;20549;-65
2023/09/24 07:17:26;;;;;;;3.10;2.47;;;;;;;22.21;55.78;101194.66;5068441;28;20176;-63
2023/09/24 07:19:52;;;;;;;3.08;2.35;;;;;;;21.22;63.90;101203.78;5056450;28;20212;-66
2023/09/24 07:22:21;;;;;;;3.28;2.80;;;;;;;22.47;58.51;101205.50;5053048;28;20240;-65
2023/09/24 07:24:46;;;;;;;3.92;3.00;;;;;;;21.64;58.71;101210.81;5050866;28;20632;-64
2023/09/24 07:27:11;;;;;;;4.88;2.95;;;;;;;20.61;70.45;101194.66;5037787;28;20189;-63
2023/09/24 07:29:37;;;;;;;4.75;2.70;;;;;;;20.63;71.54;101199.78;5031870;28;20257;-63
2023/09/24 07:32:02;;;;;;;3.83;2.80;;;;;;;22.56;58.35;101198.63;5004295;28;20737;-64
2023/09/24 07:34:28;;;;;;;5.47;2.92;;;;;;;22.23;58.33;101195.38;5047861;28;20178;-64
2023/09/24 07:36:54;;;;;;;3.80;2.60;;;;;;;20.59;68.75;101200.97;5037009;28;20223;-64
2023/09/24 07:39:19;;;;;;;3.97;3.05;;;;;;;21.50;69.03;101200.66;5048140;28;20201;-64
2023/09/24 07:41:45;;;;;;;4.85;2.72;;;;;;;23.24;53.68;101202.28;5045905;28;20252;-64
2023/09/24 07:44:10;;;;;;;4.07;2.17;;;;;;;22.92;54.81;101200.75;5057264;28;20220;-66
2023/09/24 07:46:36;;;;;;;4.20;2.35;;;;;;;21.20;64.39;101208.28;5043806;28;20186;-65
2023/09/24 07:49:05;;;;;;;3.17;2.33;;;;;;;21.06;71.89;101204.19;5047274;28;20504;-64
2023/09/24 07:51:30;;;;;;;3.38;2.22;;;;;;;21.63;65.45;101198.66;5050094;28;20275;-65
2023/09/24 07:53:55;;;;;;;3.47;2.45;;;;;;;21.42;65.77;101203.88;5040755;28;20221;-65
2023/09/24 07:56:21;;;;;;;3.50;2.40;;;;;;;20.67;72.69;101206.41;5037884;28;20178;-66
2023/09/24 07:58:46;;;;;;;6.18;2.72;;;;;;;18.68;92.97;101211.69;5044619;28;20177;-65
2023/09/24 08:01:13;;;;;;;6.23;2.87;;;;;;;18.38;96.57;101210.31;5039346;28;21312;-63
2023/09/24 08:03:40;;;;;;;3.10;2.40;;;;;;;18.94;94.69;101207.25;5041995;28;20607;-63
2023/09/24 08:06:06;;;;;;;9.57;3.33;;;;;;;19.03;92.58;101203.16;5049875;28;20653;-65
2023/09/24 08:08:34;;;;;;;8.23;3.33;;;;;;;18.36;94.61;101202.59;5043705;28;20262;-64
2023/09/24 08:10:59;;;;;;;7.73;3.33;;;;;;;17.33;100.00;101210.38;5047164;28;20603;-63
2023/09/24 08:13:25;;;;;;;8.40;3.63;;;;;;;16.79;100.00;101213.78;5081702;28;20181;-63
2023/09/24 08:15:50;;;;;;;10.20;3.70;;;;;;;16.02;100.00;101206.34;5074219;28;20184;-63
2023/09/24 08:18:17;;;;;;;10.63;4.10;;;;;;;15.86;100.00;101208.19;5062733;28;20192;-63
2023/09/24 08:20:43;;;;;;;12.53;3.60;;;;;;;15.96;100.00;101210.16;5045910;28;20228;-64
2023/09/24 08:23:08;;;;;;;6.63;3.53;;;;;;;16.74;100.00;101211.47;5053964;28;20697;-63
2023/09/24 08:25:34;;;;;;;10.27;3.00;;;;;;;17.39;100.00;101211.72;5054718;28;20184;-63
2023/09/24 08:28:00;;;;;;;7.73;3.20;;;;;;;16.60;100.00;101214.13;5063035;28;20177;-63
2023/09/24 08:30:30;;;;;;;4.80;3.13;;;;;;;15.90;100.00;101213.13;5059046;28;20560;-64
2023/09/24 08:32:55;;;;;;;11.43;3.73;;;;;;;15.75;100.00;101220.00;5059920;28;20189;-63
2023/09/24 08:35:21;;;;;;;13.13;3.40;;;;;;;15.41;100.00;101219.34;5072439;28;20180;-65
2023/09/24 08:37:46;;;;;;;9.47;3.63;;;;;;;15.01;100.00;101224.19;5068049;28;20543;-64
2023/09/24 08:40:12;;;;;;;14.23;3.70;;;;;;;15.12;100.00;101224.44;5044986;28;20249;-63
2023/09/24 08:42:38;;;;;;;12.47;4.00;;;;;;;14.85;100.00;101216.44;5066967;28;20247;-62
2023/09/24 08:45:14;;;;;;;7.70;3.50;;;;;;;15.79;100.00;101223.25;5053021;28;20182;-63
2023/09/24 08:47:41;;;;;;;7.07;3.33;;;;;;;16.16;100.00;101226.28;5052142;28;20181;-64
2023/09/24 08:50:07;;;;;;;7.47;3.13;;;;;;;17.49;100.00;101214.56;5042172;28;20200;-65
2023/09/24 08:52:35;;;;;;;12.70;3.03;;;;;;;18.40;100.00;101213.66;5052083;28;20639;-64
2023/09/24 08:55:02;;;;;;;9.10;3.07;;;;;;;20.31;85.64;101218.84;5053092;28;20186;-65
2023/09/24 08:57:28;;;;;;;7.23;3.07;;;;;;;22.38;68.37;101212.41;5052968;28;20213;-65
2023/09/24 08:59:53;;;;;;;9.13;3.10;;;;;;;23.80;56.49;101217.25;5051589;28;20185;-65
2023/09/24 09:02:18;;;;;;;7.55;2.70;;;;;;;25.15;48.33;101217.56;5024824;28;20229;-63
2023/09/24 09:04:48;;;;;;;10.55;2.85;;;;;;;24.72;52.00;101216.53;5029002;28;20198;-63
2023/09/24 09:07:13;;;;;;;9.73;2.72;;;;;;;26.16;44.80;101220.69;5025524;28;20637;-63
2023/09/24 09:09:39;;;;;;;6.63;3.10;;;;;;;25.35;45.78;101222.66;5020143;28;20198;-63
2023/09/24 09:12:04;;;;;;;7.57;3.22;;;;;;;26.50;43.19;101222.47;5055564;28;20224;-62
2023/09/24 09:14:35;;;;;;;7.03;3.13;;;;;;;25.34;44.00;101224.50;5070543;28;20777;-63
2023/09/24 09:17:00;;;;;;;12.63;3.10;;;;;;;27.00;41.75;101220.72;5073171;28;20192;-64
2023/09/24 09:19:27;;;;;;;9.95;3.45;;;;;;;27.38;40.66;101216.56;5059221;28;20185;-64
2023/09/24 09:21:52;;;;;;;13.20;2.88;;;;;;;27.60;39.21;101218.72;5047443;28;20598;-64
2023/09/24 09:24:25;;;;;;;11.57;3.33;;;;;;;28.56;37.09;101218.66;5046193;28;20267;-64
2023/09/24 09:26:54;;;;;;;8.20;2.55;;;;;;;28.86;37.35;101224.91;5058479;28;20189;-64
2023/09/24 09:29:21;;;;;;;9.25;2.88;;;;;;;27.66;39.07;101218.03;5063429;28;20193;-63
2023/09/24 09:31:50;;;;;;;11.95;3.00;;;;;;;26.81;40.98;101213.97;5042494;28;20683;-65
2023/09/24 09:34:16;;;;;;;8.45;2.83;;;;;;;28.53;38.47;101216.34;5042019;28;20189;-64
2023/09/24 09:36:42;;;;;;;7.00;2.88;;;;;;;29.17;35.62;101213.41;5064626;28;20185;-65
2023/09/24 09:39:08;;;;;;;8.15;2.63;;;;;;;28.80;36.85;101210.59;5064593;28;20612;-63
2023/09/24 09:41:33;;;;;;;8.95;3.10;;;;;;;29.29;36.71;101209.34;5056043;28;20231;-63
2023/09/24 09:44:05;;;;;;;6.93;2.90;;;;;;;27.48;38.74;101200.56;5056092;28;20177;-64
2023/09/24 09:46:34;;;;;;;8.07;3.17;;;;;;;27.93;38.62;101203.56;5052376;28;20256;-63
2023/09/24 09:49:07;;;;;;;9.05;2.55;;;;;;;27.46;38.08;101202.56;5059544;28;20169;-63
2023/09/24 09:51:48;;;;;;;6.22;2.70;;;;;;;28.59;35.27;101192.69;5053445;28;20224;-63
2023/09/24 09:54:15;;;;;;;12.07;3.13;;;;;;;28.70;38.29;101183.50;5049903;28;20239;-63
2023/09/24 09:56:42;;;;;;;9.05;2.95;;;;;;;28.79;36.02;101192.22;5047105;28;20633;-65
2023/09/24 09:59:08;;;;;;;12.80;3.28;;;;;;;27.58;39.16;101179.25;5048615;28;20185;-63
2023/09/24 10:01:34;;;;;;;10.70;3.70;;;;;;;28.57;38.33;101181.44;5041428;28;20216;-64
2023/09/24 10:04:02;;;;;;;9.02;3.13;;;;;;;30.43;37.62;101191.44;5053963;28;20273;-64
2023/09/24 10:06:28;;;;;;;15.18;3.60;;;;;;;28.08;37.06;101194.94;5049897;28;20191;-63
2023/09/24 10:08:54;;;;;;;7.38;3.08;;;;;;;28.02;37.92;101183.19;5050101;28;20296;-63
2023/09/24 10:11:31;;;;;;;9.55;3.50;;;;;;;27.98;38.49;101187.19;5050184;28;20303;-63
2023/09/24 10:13:57;;;;;;;13.20;3.50;;;;;;;27.86;39.38;101178.84;5042827;28;20201;-63
2023/09/24 10:16:26;;;;;;;6.07;3.05;;;;;;;27.31;40.46;101178.59;5043983;28;20602;-63
2023/09/24 10:18:58;;;;;;;14.75;3.25;;;;;;;26.46;42.08;101174.47;5051461;28;20177;-63
2023/09/24 10:21:35;;;;;;;9.20;2.92;;;;;;;23.87;51.87;101162.31;5051136;28;20566;-64
2023/09/24 10:24:09;;;;;;;11.98;5.85;;;;;;;23.30;60.11;101168.41;5050395;28;20179;-65
2023/09/24 10:27:03;;;;;;;4.50;2.00;;;;;;;21.49;79.35;101163.16;5063860;28;20216;-63
2023/09/24 10:29:51;;;;;;;4.10;2.08;;;;;;;21.57;81.69;101160.75;5062264;28;20275;-62
2023/09/24 10:32:21;;;;;;;5.25;2.00;;;;;;;19.98;83.55;101157.81;5043753;28;20236;-64
2023/09/24 10:35:06;;;;;;;7.63;2.42;;;;;;;18.62;96.36;101145.22;5071294;28;20185;-63
2023/09/24 10:37:38;;;;;;;3.67;2.20;;;;;;;18.62;99.06;101144.38;5068935;28;20180;-63
2023/09/24 10:40:07;;;;;;;3.97;2.00;;;;;;;18.28;100.00;101138.97;5044288;28;20177;-64
2023/09/24 10:42:43;;;;;;;3.13;1.40;;;;;;;18.10;100.00;101133.28;5056723;28;20220;-63
2023/09/24 10:45:09;;;;;;;5.83;1.80;;;;;;;17.84;100.00;101134.13;5066258;28;20266;-62
2023/09/24 10:47:41;;;;;;;3.67;1.83;;;;;;;17.74;100.00;101133.91;5058202;28;20221;-62
2023/09/24 10:50:12;;;;;;;2.63;1.30;;;;;;;17.66;100.00;101130.19;5053149;28;20197;-63
2023/09/24 10:52:51;;;;;;;2.53;2.13;;;;;;;17.25;100.00;101140.69;5052544;28;20670;-63
2023/09/24 10:55:17;;;;;;;5.97;3.40;;;;;;;17.42;100.00;101136.09;5035973;28;20192;-63
2023/09/24 10:57:47;;;;;;;5.00;2.10;;;;;;;17.32;100.00;101137.66;5061144;28;20180;-62
2023/09/24 11:00:15;;;;;;;3.93;2.07;;;;;;;17.62;100.00;101134.75;5053007;28;20516;-62
2023/09/24 11:02:41;;;;;;;3.57;1.90;;;;;;;17.94;100.00;101134.34;5051690;28;20201;-63
2023/09/24 11:05:07;;;;;;;3.80;2.07;;;;;;;17.67;100.00;101132.66;5051045;28;20180;-64
2023/09/24 11:07:32;;;;;;;3.60;1.60;;;;;;;17.53;100.00;101125.00;5065557;28;20177;-63
2023/09/24 11:09:57;;;;;;;2.97;1.40;;;;;;;17.72;100.00;101115.00;5070990;28;20207;-62
2023/09/24 11:12:23;;;;;;;3.37;2.33;;;;;;;17.80;100.00;101117.06;5042524;28;20645;-62
2023/09/24 11:14:55;;;;;;;3.43;1.90;;;;;;;17.80;100.00;101121.41;5035433;28;20180;-63
2023/09/24 11:17:21;;;;;;;4.77;1.80;;;;;;;17.65;100.00;101121.56;5036149;28;20183;-66
2023/09/24 11:19:49;;;;;;;2.27;1.43;;;;;;;17.70;100.00;101119.47;5055166;28;20238;-64
2023/09/24 11:22:34;;;;;;;3.40;1.90;;;;;;;17.72;100.00;101115.00;5042874;28;20237;-63
2023/09/24 11:25:13;;;;;;;2.60;1.27;;;;;;;17.87;100.00;101120.06;5042316;28;20192;-63